Aérodrome :
LOGIN :

S'inscrire | Disclaimer

   EN    FR    IT 

 










Légende :    VFR   VFR Marginal   IFR   IFR Intensif   IFR Très Intensif
Visi : 
Plafond : 
>= 8 km
>= 3000ft
5 à 8 km
1000 à 3000 ft
1500m à 5 km
500 à 1000 ft
800 à 1500m
200 à 500 ft
< 800m
< 200 ft
Symboles :   Orages  Brouillard  Fortes neiges  Fortes précipitations  Vent > 20 kt
SIGMETs :   Divers  Orages  Givrage  Turbulence  Onde Orograph.  Cendres Volcan.






- Altitude de l'aérodrome : 218 ft
- Code IATA : LBG


LFPB - Paris / Le Bourget

DERNIER METAR :
  • 220930Z AUTO 24005KT 210V310 9999 BKN016 BKN023 OVC028 17/14 Q1014 TEMPO 4000 -SHRA FEW030CB

METARs EXPIRÉS :
  • 220900Z AUTO 23006KT 180V250 9999 SCT014 BKN024 OVC029 16/15 Q1014 TEMPO 4000 -SHRA FEW030CB
  • 220830Z AUTO 21006KT 170V240 9999 BKN012 OVC017 15/14 Q1015 TEMPO 4000 -SHRA FEW030CB
  • 220800Z AUTO 20004KT 160V230 8000 DZ OVC010 15/14 Q1015 TEMPO 4000 -SHRA FEW030CB
  • 220730Z AUTO 20005KT 150V240 9000 DZ OVC008 14/14 Q1015 TEMPO 4000 -SHRA FEW030CB
  • 220700Z AUTO 18006KT 150V210 7000 -DZ OVC009 14/14 Q1015 TEMPO BKN008 SCT020TCU
  • 220630Z AUTO 19007KT 4900 +DZ BR BKN010 OVC014 14/14 Q1015 TEMPO BKN008 SCT020TCU BECMG 9999 NSW
  • 220600Z AUTO 20008KT 9999 -DZ OVC013 14/13 Q1015 TEMPO BKN008 SCT020TCU
  • 220530Z AUTO 22005KT 9999 BKN015 BKN030 BKN041 14/13 Q1015 TEMPO BKN008 SCT020TCU

TAF AMD TAF LFPB
Valide du 22 à 07h jusqu'au 23 à 06h UTC


220700Z 2207/2306 21010KT 5000 DZRA BKN010
PROB40
TEMPO 2207/2209 2500 DZRA BKN005
BECMG 2209/2211 BKN015
PROB40
TEMPO 2209/2212 4000 -SHRA FEW030CB
BECMG 2212/2214 34010KT
BECMG 2216/2218 CAVOK
ATIS : +33 1 48 62 43 92



MET'MAP, la Météo Aéronautique d'un coup d'oeil ! - Copyright ORBIFLY Décembre 2007 - Disclaimer

ORBIFLY MET'MAP TEAM :

Programmation & Développement : Alexandra Zaïnal
Sur une idée originale de : Baudouin d'Aumeries
Soutien technique & logistique : Manuel Goepfert
Assistance : Marc-Olivier Méhu




SOURCES & CREDITS :

   NOAA